AirNav   Pilot Hours Calculator
 
 1293 users online  

22CD Platte Valley Medical Center Heliport
Brighton, Colorado, USA

GOING TO BRIGHTON?


FAA INFORMATION EFFECTIVE 25 MARCH 2021

Location

FAA Identifier: 22CD
Lat/Long: 39-57-57.7200N 104-46-02.8500W
39-57.962000N 104-46.047500W
39.9660333,-104.7674583
(estimated)
Elevation: 5115 ft. / 1559 m (estimated)
From city: 6 miles E of BRIGHTON, CO
Time zone: UTC -6 (UTC -7 during Standard Time)
Zip code: 80601

Heliport Operations

Heliport use: Private use, MEDICAL USE.
Activation date: 04/2007
Control tower: no
ARTCC: DENVER CENTER
FSS: DENVER FLIGHT SERVICE STATION
Attendance: CONTINUOUS
Segmented circle: no

Heliport Communications

WX ASOS at DEN (8 nm SE): PHONE 303-342-1920
WX AWOS-3 at EIK (13 nm W): 133.825 (303-604-4339)
WX AWOS-3 at CFO (15 nm SE): 119.025 (303-261-9104)
WX AWOS-3 at BJC (16 nm W): PHONE 720-887-8067

Nearby radio navigation aids

VOR radial/distance  VOR name  Freq  Var
DVVr295/7.9MILE HIGH VORTAC114.7008E
DENr324/10.4DENVER VOR/DME117.9008E
BJCr068/17.4JEFFCO VOR/DME115.4011E
FQFr327/17.9FALCON VORTAC116.3011E
GLLr184/33.7GILL VOR/DME114.2013E

Heliport Services

Runway Information

Helipad H1

Dimensions: 65 x 65 ft. / 20 x 20 m
Surface: concrete
Latitude: 39-57.962000N
Longitude: 104-46.047500W
Elevation: 5115.0 ft.
Traffic pattern: leftleft

Heliport Ownership and Management from official FAA records

Ownership: Privately-owned
Owner: PLATTE VALLEY MEDICAL CENTER
1600 PRAIRIE CENTER PARKWAY
BRIGHTON, CO 80601
Phone 303-498-1600
Manager: CHIYON LEE
1600 PRAIRIE CENTER PARKWAY
BRIGHTON, CO 80601
Phone 303-498-1450

Additional Remarks

MAINTAIN COMMS WITH HECKENDORF RANCH ARPT ON 122.9.
FOR CD CTC DENVER APCH AT 303-342-1916.

Instrument Procedures

There are no published instrument procedures at 22CD.

Some nearby airports with instrument procedures:

KDEN - Denver International Airport (8 nm SE)
KEIK - Erie Municipal Airport (13 nm W)
KCFO - Colorado Air and Space Port Airport (15 nm SE)
KBKF - Buckley Air Force Base (16 nm S)
KBJC - Rocky Mountain Metro Airport (16 nm W)
 
Loc | Ops | Rwys | IFR | FBO | Links
Com | Nav | Svcs | Stats | Notes

AirBoss

 
Area around 22CD (Platte Valley Medical Center Heliport)
 
Road maps at: MapQuest Bing Google
 
Aerial photo
No photo
 
Sectional chart

 
Airport distance calculator
Flying to Platte Valley Medical Center Heliport? Find the distance to fly.

From to 22CD

Sunrise and sunset
Times for 17-Apr-2021
 Local
(UTC-6)
 Zulu
(UTC)
Morning civil twilight05:5111:51
Sunrise06:1912:19
Sunset19:3801:38
Evening civil twilight20:0602:06

Current date and time
Zulu (UTC)  17-Apr-2021 15:12:20
Local (UTC-6)  17-Apr-2021 09:12:20
 
METAR
KDEN 
10nm SE 
171453Z 35008KT 10SM -SN FEW021 BKN037 BKN045 00/M04 A3023 RMK AO2 SNB35 SLP252 P0000 60000 T00001044 52006
KEIK 
13nm W 
171455Z AUTO 00000KT 10SM SCT060 02/M03 A3025 RMK AO2 T00161027
KBKF 
15nm S 
171058Z 35006KT 10SM BKN017 OVC030 M02/M02 A3021 RMK AO2A SLP248 T10181019
KCFO 
15nm SE 
171455Z 34007KT 10SM BKN019 BKN027 OVC050 01/M02 A3024
KBJC 
16nm W 
171450Z 27003KT 10SM BKN050 00/M03 A3024
TAF
KDEN 
10nm SE 
171243Z 1713/1818 34007KT P6SM SCT021 SCT026 OVC035 FM171600 36010KT P6SM SCT015 BKN025 FM172100 01010KT P6SM BKN035 BKN090 FM180300 26008KT P6SM FEW090 SCT180 FM180600 21008KT P6SM SKC
KBKF 
15nm S 
170900Z 1709/1815 VRB06KT 9999 BKN025 OVC035 620259 QNH3020INS BECMG 1715/1716 32009KT 9999 SCT025 BKN040 620409 QNH3018INS BECMG 1720/1721 35009KT 9999 FEW060 QNH3014INS TX08/1723Z TNM06/1712Z
KBJC 
16nm W 
171141Z 1712/1812 29004KT P6SM SCT040 SCT050 BKN090 FM171700 02008KT P6SM BKN035 FM172200 36011KT P6SM SCT035 BKN090 FM180300 29007KT P6SM FEW090 SCT180 FM180900 27009KT P6SM SKC
NOTAMs
Click for the latest NOTAMs
NOTAMs are issued by the DoD/FAA and will open in a separate window not controlled by AirNav.

 

 
 

Would you like to see your business listed on this page?

 If your business provides an interesting product or service to pilots, flight crews, aircraft, or users of the Platte Valley Medical Center Heliport, you should consider listing it here.  To start the listing process, click on the button below
 
Add a business
 

Other Pages about Platte Valley Medical Center Heliport

Update a link
 
Copyright © AirNav, LLC. All rights reserved. Privacy Policy  Contact